< < Back
Terminal Aerodrome Forecast


Current Version              Previous Versions:   1  2  3  4  5  6  7  8  9  

Terminal Aerodrome Forecast

625
FTUS44 KOHX 292200 AAD
TAFCSV
TAF AMD
KCSV 292207Z 2922/3018 VRB05KT P6SM VCSH BKN100
     FM300500 18002KT 4SM BR SCT030 BKN080
     FM301200 18009KT P6SM SCT035 SCT100=



Latest METAR

181
SAUS70 KWBC 300800 RRF
MTRCSV
METAR KCSV 300753Z AUTO VRB03KT 10SM BKN075 21/17 A3017 RMK AO2 SLP194
T02060167


USA.gov is the U.S. government's official web portal to all federal, state and local government web resources and services.